Boryslav — ENLB — position and weather

sailwx.info

Track history (hours):
 
Tides and Currents Weather Stations Pressure Air Temp Water Temp Dewpoint Dewpoint Depression Visibility Wind Speed Wind Dir Waves Ship Positions

Boryslav

Last reported at 2017-Nov-16 14:18 UTC. Time now 2017-Nov-22 13:05 UTC.
Position N 47°41' E 035°08'.

Length 86 m; draft 2.3 m.

Type: Cargo ship. MMSI: 272088700.

Date/timePositionNaut miles runAvg speedWind from/ knotsBaromVisibWave heightAir tempDewpointWater temp
2017-Nov-16 14:18N 47°41' E 035°08'1 4.8
2017-Nov-16 14:00N 47°43' E 035°08'2 4.5
2017-Nov-16 13:30N 47°44' E 035°10'2 4.7
2017-Nov-16 13:00N 47°47' E 035°09'2 3.3
2017-Nov-16 12:30N 47°48' E 035°09'0 0.1
2017-Nov-16 12:00N 47°48' E 035°09'0 0.0
2017-Nov-16 11:30N 47°48' E 035°09'0 0.0
2017-Nov-16 11:00N 47°48' E 035°09'0 0.0
2017-Nov-16 10:30N 47°48' E 035°09'0 0.0
2017-Nov-16 10:00N 47°48' E 035°09'2 3.3
2017-Nov-16 09:30N 47°49' E 035°08'2 4.5
2017-Nov-16 09:00N 47°51' E 035°05'1 2.2
2017-Nov-16 08:30N 47°52' E 035°06'0 0.2
2017-Nov-16 08:00N 47°52' E 035°06'0 0.6
2017-Nov-16 07:30N 47°52' E 035°06'0 0.0
2017-Nov-16 07:00N 47°52' E 035°06'0 0.0
2017-Nov-16 06:30N 47°52' E 035°06'0 0.0
2017-Nov-16 06:00N 47°52' E 035°06'0 0.0
2017-Nov-16 05:30N 47°52' E 035°06'0 0.0
2017-Nov-16 05:00N 47°52' E 035°06'0 0.0
2017-Nov-16 04:30N 47°52' E 035°06'0 0.0
2017-Nov-16 04:00N 47°52' E 035°06'0 0.0
2017-Nov-16 03:30N 47°52' E 035°06'0 0.0
2017-Nov-16 03:00N 47°52' E 035°06'0 0.0
2017-Nov-16 02:30N 47°52' E 035°06'0 0.0
2017-Nov-16 02:00N 47°52' E 035°06'0 0.0
2017-Nov-16 01:30N 47°52' E 035°06'0 0.0
2017-Nov-16 01:00N 47°52' E 035°06'0 0.0
2017-Nov-16 00:30N 47°52' E 035°06'0 0.0
2017-Nov-16 00:00N 47°52' E 035°06'0 0.0
2017-Nov-15 23:30N 47°52' E 035°06'1 2.4
2017-Nov-15 23:00N 47°53' E 035°06'2 4.5
2017-Nov-15 22:30N 47°56' E 035°07'2 4.5
2017-Nov-15 22:00N 47°58' E 035°07'4 4.5
2017-Nov-15 21:10N 48°02' E 035°08'1 4.5
2017-Nov-15 21:00N 48°02' E 035°07'  
2017-Nov-12 07:23N 48°04' E 035°05'1 3.6
2017-Nov-12 07:00N 48°03' E 035°07'2 3.5
2017-Nov-12 06:30N 48°01' E 035°08'2 3.6
2017-Nov-12 06:00N 47°59' E 035°08'2 3.5
2017-Nov-12 05:31N 47°58' E 035°07'2 3.5
2017-Nov-12 05:01N 47°56' E 035°07'2 3.5
2017-Nov-12 04:31N 47°54' E 035°07'2 3.9
2017-Nov-12 04:01N 47°52' E 035°06'0 0.4
2017-Nov-12 03:31N 47°52' E 035°06'0 0.0
2017-Nov-12 03:01N 47°52' E 035°06'0 0.0
2017-Nov-12 02:30N 47°52' E 035°06'0 0.0
2017-Nov-12 02:01N 47°52' E 035°06'1 1.2
2017-Nov-12 01:30N 47°52' E 035°05'0 0.0
2017-Nov-12 01:00N 47°52' E 035°05'1 2.2
2017-Nov-12 00:31N 47°51' E 035°05'2 4.3
2017-Nov-12 00:01N 47°49' E 035°08'2 4.2
2017-Nov-11 23:31N 47°48' E 035°10'2 3.9
2017-Nov-11 23:01N 47°46' E 035°09'2 3.9
2017-Nov-11 22:31N 47°44' E 035°10'2 3.8
2017-Nov-11 22:01N 47°43' E 035°08'2 3.7
2017-Nov-11 21:31N 47°41' E 035°08'2 3.8
2017-Nov-11 21:00N 47°39' E 035°07'2 3.9
2017-Nov-11 20:30N 47°38' E 035°04'2 3.9
2017-Nov-11 20:00N 47°36' E 035°02'0 0.1
2017-Nov-11 19:31N 47°36' E 035°02'0 0.1
2017-Nov-11 19:00N 47°36' E 035°02'1 2.2
2017-Nov-11 18:31N 47°35' E 035°03'0 0.3
2017-Nov-11 18:00N 47°35' E 035°03'0 0.0
2017-Nov-11 17:31N 47°35' E 035°03'0 0.0
2017-Nov-11 17:00N 47°35' E 035°03'0 0.0
2017-Nov-11 16:31N 47°35' E 035°03'0 0.0
2017-Nov-11 16:01N 47°35' E 035°03'0 0.0
2017-Nov-11 15:31N 47°35' E 035°03'0 0.0
2017-Nov-11 14:58N 47°35' E 035°03'0 0.0
2017-Nov-11 14:30N 47°35' E 035°03'1 2.2
2017-Nov-11 14:00N 47°36' E 035°02'0 0.0
2017-Nov-11 13:30N 47°36' E 035°02'0 0.0
2017-Nov-11 13:00N 47°36' E 035°02'0 0.0
2017-Nov-11 12:30N 47°36' E 035°02'0 0.0
2017-Nov-11 12:00N 47°36' E 035°02'0 0.1
2017-Nov-11 11:30N 47°36' E 035°02'0 0.0
2017-Nov-11 11:00N 47°36' E 035°02'0 0.0
2017-Nov-11 10:31N 47°36' E 035°02'0 0.0
2017-Nov-11 10:00N 47°36' E 035°02'0 0.0
2017-Nov-11 09:30N 47°36' E 035°02'0 0.0
2017-Nov-11 09:00N 47°36' E 035°02'0 0.0
2017-Nov-11 08:28N 47°36' E 035°02'0 0.0
2017-Nov-11 08:00N 47°36' E 035°02'0 0.0
2017-Nov-11 07:30N 47°36' E 035°02'0 0.0
2017-Nov-11 07:00N 47°36' E 035°02'0 0.0
2017-Nov-11 06:30N 47°36' E 035°02'0 0.0
2017-Nov-11 06:00N 47°36' E 035°02'0 0.2
2017-Nov-11 05:30N 47°36' E 035°03'1 2.4
2017-Nov-11 05:00N 47°35' E 035°02'  
Track history (hours):
 
Tides and Currents Weather Stations Pressure Air Temp Water Temp Dewpoint Dewpoint Depression Visibility Wind Speed Wind Dir Waves Ship Positions

Boryslav

Last reported at 2017-Nov-16 14:18 UTC. Time now 2017-Nov-22 13:05 UTC.
Position N 47°41' E 035°08'.

Length 86 m; draft 2.3 m.

Type: Cargo ship. MMSI: 272088700.

Date/timePositionNaut miles runAvg speedWind from/ knotsBaromVisibWave heightAir tempDewpointWater temp
2017-Nov-16 14:18N 47°41' E 035°08'1 4.8
2017-Nov-16 14:00N 47°43' E 035°08'2 4.5
2017-Nov-16 13:30N 47°44' E 035°10'2 4.7
2017-Nov-16 13:00N 47°47' E 035°09'2 3.3
2017-Nov-16 12:30N 47°48' E 035°09'0 0.1
2017-Nov-16 12:00N 47°48' E 035°09'0 0.0
2017-Nov-16 11:30N 47°48' E 035°09'0 0.0
2017-Nov-16 11:00N 47°48' E 035°09'0 0.0
2017-Nov-16 10:30N 47°48' E 035°09'0 0.0
2017-Nov-16 10:00N 47°48' E 035°09'2 3.3
2017-Nov-16 09:30N 47°49' E 035°08'2 4.5
2017-Nov-16 09:00N 47°51' E 035°05'1 2.2
2017-Nov-16 08:30N 47°52' E 035°06'0 0.2
2017-Nov-16 08:00N 47°52' E 035°06'0 0.6
2017-Nov-16 07:30N 47°52' E 035°06'0 0.0
2017-Nov-16 07:00N 47°52' E 035°06'0 0.0
2017-Nov-16 06:30N 47°52' E 035°06'0 0.0
2017-Nov-16 06:00N 47°52' E 035°06'0 0.0
2017-Nov-16 05:30N 47°52' E 035°06'0 0.0
2017-Nov-16 05:00N 47°52' E 035°06'0 0.0
2017-Nov-16 04:30N 47°52' E 035°06'0 0.0
2017-Nov-16 04:00N 47°52' E 035°06'0 0.0
2017-Nov-16 03:30N 47°52' E 035°06'0 0.0
2017-Nov-16 03:00N 47°52' E 035°06'0 0.0
2017-Nov-16 02:30N 47°52' E 035°06'0 0.0
2017-Nov-16 02:00N 47°52' E 035°06'0 0.0
2017-Nov-16 01:30N 47°52' E 035°06'0 0.0
2017-Nov-16 01:00N 47°52' E 035°06'0 0.0
2017-Nov-16 00:30N 47°52' E 035°06'0 0.0
2017-Nov-16 00:00N 47°52' E 035°06'0 0.0
2017-Nov-15 23:30N 47°52' E 035°06'1 2.4
2017-Nov-15 23:00N 47°53' E 035°06'2 4.5
2017-Nov-15 22:30N 47°56' E 035°07'2 4.5
2017-Nov-15 22:00N 47°58' E 035°07'4 4.5
2017-Nov-15 21:10N 48°02' E 035°08'1 4.5
2017-Nov-15 21:00N 48°02' E 035°07'  
2017-Nov-12 07:23N 48°04' E 035°05'1 3.6
2017-Nov-12 07:00N 48°03' E 035°07'2 3.5
2017-Nov-12 06:30N 48°01' E 035°08'2 3.6
2017-Nov-12 06:00N 47°59' E 035°08'2 3.5
2017-Nov-12 05:31N 47°58' E 035°07'2 3.5
2017-Nov-12 05:01N 47°56' E 035°07'2 3.5
2017-Nov-12 04:31N 47°54' E 035°07'2 3.9
2017-Nov-12 04:01N 47°52' E 035°06'0 0.4
2017-Nov-12 03:31N 47°52' E 035°06'0 0.0
2017-Nov-12 03:01N 47°52' E 035°06'0 0.0
2017-Nov-12 02:30N 47°52' E 035°06'0 0.0
2017-Nov-12 02:01N 47°52' E 035°06'1 1.2
2017-Nov-12 01:30N 47°52' E 035°05'0 0.0
2017-Nov-12 01:00N 47°52' E 035°05'1 2.2
2017-Nov-12 00:31N 47°51' E 035°05'2 4.3
2017-Nov-12 00:01N 47°49' E 035°08'2 4.2
2017-Nov-11 23:31N 47°48' E 035°10'2 3.9
2017-Nov-11 23:01N 47°46' E 035°09'2 3.9
2017-Nov-11 22:31N 47°44' E 035°10'2 3.8
2017-Nov-11 22:01N 47°43' E 035°08'2 3.7
2017-Nov-11 21:31N 47°41' E 035°08'2 3.8
2017-Nov-11 21:00N 47°39' E 035°07'2 3.9
2017-Nov-11 20:30N 47°38' E 035°04'2 3.9
2017-Nov-11 20:00N 47°36' E 035°02'0 0.1
2017-Nov-11 19:31N 47°36' E 035°02'0 0.1
2017-Nov-11 19:00N 47°36' E 035°02'1 2.2
2017-Nov-11 18:31N 47°35' E 035°03'0 0.3
2017-Nov-11 18:00N 47°35' E 035°03'0 0.0
2017-Nov-11 17:31N 47°35' E 035°03'0 0.0
2017-Nov-11 17:00N 47°35' E 035°03'0 0.0
2017-Nov-11 16:31N 47°35' E 035°03'0 0.0
2017-Nov-11 16:01N 47°35' E 035°03'0 0.0
2017-Nov-11 15:31N 47°35' E 035°03'0 0.0
2017-Nov-11 14:58N 47°35' E 035°03'0 0.0
2017-Nov-11 14:30N 47°35' E 035°03'1 2.2
2017-Nov-11 14:00N 47°36' E 035°02'0 0.0
2017-Nov-11 13:30N 47°36' E 035°02'0 0.0
2017-Nov-11 13:00N 47°36' E 035°02'0 0.0
2017-Nov-11 12:30N 47°36' E 035°02'0 0.0
2017-Nov-11 12:00N 47°36' E 035°02'0 0.1
2017-Nov-11 11:30N 47°36' E 035°02'0 0.0
2017-Nov-11 11:00N 47°36' E 035°02'0 0.0
2017-Nov-11 10:31N 47°36' E 035°02'0 0.0
2017-Nov-11 10:00N 47°36' E 035°02'0 0.0
2017-Nov-11 09:30N 47°36' E 035°02'0 0.0
2017-Nov-11 09:00N 47°36' E 035°02'0 0.0
2017-Nov-11 08:28N 47°36' E 035°02'0 0.0
2017-Nov-11 08:00N 47°36' E 035°02'0 0.0
2017-Nov-11 07:30N 47°36' E 035°02'0 0.0
2017-Nov-11 07:00N 47°36' E 035°02'0 0.0
2017-Nov-11 06:30N 47°36' E 035°02'0 0.0
2017-Nov-11 06:00N 47°36' E 035°02'0 0.2
2017-Nov-11 05:30N 47°36' E 035°03'1 2.4
2017-Nov-11 05:00N 47°35' E 035°02'  

Dump ship's entire track history